Time;durP1;ratioP1;P1;durP2;ratioP2;P2;SDS_P1;SDS_P2;PMS_P1;PMS_P2;Temp;Humidity;BMP_temperature;BMP_pressure;BME280_temperature;BME280_humidity;BME280_pressure;Samples;Min_cycle;Max_cycle;Signal;HPM_P1;HPM_P2
2020/12/20 00:01:44;;;;;;;3.63;2.28;;;9.60;91.40;;;;;;5093927;28;20125;-76
2020/12/20 00:04:13;;;;;;;3.88;2.00;;;9.60;91.40;;;;;;5081824;28;20086;-76
2020/12/20 00:06:44;;;;;;;6.00;2.30;;;9.60;91.40;;;;;;5053742;28;20037;-75
2020/12/20 00:09:12;;;;;;;4.03;2.10;;;9.60;91.40;;;;;;5086331;28;20064;-76
2020/12/20 00:11:43;;;;;;;5.38;2.42;;;9.50;91.40;;;;;;5074884;28;20036;-75
2020/12/20 00:14:27;;;;;;;9.20;2.50;;;9.50;91.40;;;;;;5074579;28;20028;-76
2020/12/20 00:16:57;;;;;;;8.52;2.25;;;9.50;91.40;;;;;;5074866;28;20044;-76
2020/12/20 00:19:23;;;;;;;3.42;2.00;;;9.40;91.50;;;;;;5074377;28;20032;-76
2020/12/20 00:21:53;;;;;;;3.72;2.08;;;9.40;91.50;;;;;;5091097;28;20419;-76
2020/12/20 00:24:19;;;;;;;4.28;1.98;;;9.40;91.50;;;;;;5094803;28;20032;-76
2020/12/20 00:26:44;;;;;;;6.43;2.50;;;9.40;91.50;;;;;;5093643;28;20078;-76
2020/12/20 00:29:10;;;;;;;3.60;2.25;;;9.40;91.60;;;;;;5103474;28;20025;-75
2020/12/20 00:31:37;;;;;;;6.45;2.38;;;9.30;91.60;;;;;;5073289;28;20489;-76
2020/12/20 00:34:04;;;;;;;6.43;2.25;;;9.30;91.60;;;;;;5074431;28;20024;-76
2020/12/20 00:36:29;;;;;;;6.63;2.53;;;9.30;91.60;;;;;;5055915;28;20020;-76
2020/12/20 00:38:55;;;;;;;10.05;2.53;;;9.30;91.60;;;;;;5056354;28;20108;-76
2020/12/20 00:41:20;;;;;;;6.50;2.25;;;9.30;91.60;;;;;;5074119;28;20116;-76
2020/12/20 00:43:46;;;;;;;6.97;2.40;;;9.30;91.60;;;;;;5056519;28;20025;-76
2020/12/20 00:46:11;;;;;;;5.35;2.25;;;9.30;91.60;;;;;;5072267;28;20043;-76
2020/12/20 00:48:37;;;;;;;5.82;2.50;;;9.30;91.60;;;;;;5072757;28;20035;-76
2020/12/20 00:51:05;;;;;;;4.20;2.60;;;9.30;91.60;;;;;;5074099;28;20040;-76
2020/12/20 00:53:31;;;;;;;3.17;1.92;;;9.30;91.70;;;;;;5073813;28;20485;-76
2020/12/20 00:55:57;;;;;;;6.55;1.83;;;9.20;91.70;;;;;;5072430;28;20524;-76
2020/12/20 00:58:23;;;;;;;2.65;1.70;;;9.20;91.70;;;;;;5072772;28;20035;-76
2020/12/20 01:00:49;;;;;;;6.55;1.83;;;9.10;91.60;;;;;;5072408;28;20066;-76
2020/12/20 01:03:16;;;;;;;7.65;2.05;;;9.20;91.70;;;;;;5073405;28;20072;-76
2020/12/20 01:05:42;;;;;;;6.35;2.53;;;9.20;91.70;;;;;;5072580;28;20025;-75
2020/12/20 01:08:09;;;;;;;5.18;2.03;;;9.20;91.70;;;;;;5073729;28;20069;-76
2020/12/20 01:10:38;;;;;;;3.40;2.20;;;9.10;91.70;;;;;;5055602;28;20033;-76
2020/12/20 01:13:04;;;;;;;;;;;9.20;91.70;;;;;;5072360;28;20094;-76
2020/12/20 01:15:30;;;;;;;6.75;2.20;;;9.10;91.70;;;;;;5071720;28;20395;-76
2020/12/20 01:17:56;;;;;;;5.88;2.25;;;9.10;91.80;;;;;;5071800;28;20047;-76
2020/12/20 01:20:25;;;;;;;6.30;2.15;;;9.20;91.80;;;;;;5073115;28;20459;-76
2020/12/20 01:22:51;;;;;;;6.07;2.03;;;9.20;92.00;;;;;;5073284;28;20016;-76
2020/12/20 01:25:17;;;;;;;3.25;1.85;;;9.20;91.70;;;;;;5079706;28;20040;-76
2020/12/20 01:27:42;;;;;;;7.53;2.22;;;9.20;91.70;;;;;;5073344;28;20032;-76
2020/12/20 01:30:09;;;;;;;5.18;2.33;;;9.20;91.70;;;;;;5071699;28;20031;-76
2020/12/20 01:32:34;;;;;;;4.38;2.30;;;9.20;91.80;;;;;;5073194;28;20047;-76
2020/12/20 01:35:00;;;;;;;5.72;2.50;;;9.20;91.80;;;;;;5072109;28;20036;-76
2020/12/20 01:37:25;;;;;;;4.40;2.05;;;9.20;91.80;;;;;;5073127;28;20405;-76
2020/12/20 01:39:51;;;;;;;10.23;2.45;;;9.20;91.80;;;;;;5071656;28;20016;-75
2020/12/20 01:42:16;;;;;;;6.32;2.35;;;9.20;91.80;;;;;;5055306;28;20056;-76
2020/12/20 01:44:42;;;;;;;6.63;2.22;;;9.30;91.80;;;;;;5073363;28;20033;-76
2020/12/20 01:47:08;;;;;;;5.13;2.60;;;9.30;91.80;;;;;;5073202;28;20040;-76
2020/12/20 01:49:34;;;;;;;5.50;2.20;;;9.30;91.80;;;;;;5071618;28;20112;-76
2020/12/20 01:52:00;;;;;;;5.22;2.10;;;9.40;91.80;;;;;;5072950;28;20111;-76
2020/12/20 01:54:27;;;;;;;6.07;2.35;;;9.40;91.70;;;;;;5072812;28;20024;-76
2020/12/20 01:56:53;;;;;;;4.93;1.98;;;9.40;91.80;;;;;;5055303;28;20047;-76
2020/12/20 01:59:19;;;;;;;5.93;2.10;;;9.40;91.70;;;;;;5071917;28;20492;-75
2020/12/20 02:01:44;;;;;;;6.82;2.30;;;9.50;91.70;;;;;;5071810;28;20509;-75
2020/12/20 02:04:10;;;;;;;7.03;2.08;;;9.50;91.70;;;;;;5055144;28;20543;-76
2020/12/20 02:06:38;;;;;;;4.80;2.13;;;9.50;91.70;;;;;;5072361;28;20033;-76
2020/12/20 02:09:04;;;;;;;5.43;2.10;;;9.50;91.70;;;;;;5071668;28;20477;-76
2020/12/20 02:11:29;;;;;;;7.50;2.42;;;9.60;91.70;;;;;;5071534;28;20044;-76
2020/12/20 02:13:55;;;;;;;7.13;2.08;;;9.60;91.70;;;;;;5072822;28;20070;-76
2020/12/20 02:16:22;;;;;;;5.07;2.60;;;9.60;91.60;;;;;;5071360;28;20028;-76
2020/12/20 02:18:49;;;;;;;5.85;2.10;;;9.60;91.70;;;;;;5071402;28;20016;-76
2020/12/20 02:21:16;;;;;;;3.22;1.83;;;9.60;91.70;;;;;;5071506;28;20477;-76
2020/12/20 02:23:43;;;;;;;6.40;1.95;;;9.60;91.60;;;;;;5071536;28;20029;-76
2020/12/20 02:26:10;;;;;;;9.25;2.20;;;9.50;91.60;;;;;;5054866;28;20060;-76
2020/12/20 02:28:36;;;;;;;5.68;1.98;;;9.60;91.70;;;;;;5055099;28;20036;-79
2020/12/20 02:31:02;;;;;;;4.80;2.00;;;9.60;91.70;;;;;;5055293;28;20029;-80
2020/12/20 02:33:29;;;;;;;7.95;2.03;;;9.60;91.70;;;;;;5076882;28;20040;-83
2020/12/20 02:35:54;;;;;;;5.32;2.00;;;9.60;91.70;;;;;;5076309;28;20112;-83
2020/12/20 02:38:20;;;;;;;6.80;2.00;;;9.50;91.70;;;;;;5059089;28;20111;-83
2020/12/20 02:40:45;;;;;;;6.45;1.98;;;9.50;91.70;;;;;;5075249;28;20481;-83
2020/12/20 02:43:11;;;;;;;8.70;2.40;;;9.50;91.70;;;;;;5076906;28;20063;-83
2020/12/20 02:45:37;;;;;;;8.45;2.28;;;9.50;91.70;;;;;;5074780;28;20036;-83
2020/12/20 02:48:02;;;;;;;8.20;2.30;;;9.50;91.70;;;;;;5058644;28;20052;-83
2020/12/20 02:50:28;;;;;;;7.93;2.30;;;9.50;92.00;;;;;;5072599;28;20494;-84
2020/12/20 02:52:53;;;;;;;6.18;2.03;;;9.50;91.80;;;;;;5063108;28;20103;-83
2020/12/20 02:55:19;;;;;;;5.45;2.20;;;9.50;91.80;;;;;;5074727;28;20033;-83
2020/12/20 02:57:44;;;;;;;6.57;2.40;;;9.50;91.80;;;;;;5076377;28;20104;-83
2020/12/20 03:00:10;;;;;;;4.28;2.00;;;9.50;91.80;;;;;;5041467;28;20385;-83
2020/12/20 03:02:36;;;;;;;6.80;2.28;;;9.50;91.80;;;;;;5041410;28;20429;-83
2020/12/20 03:05:01;;;;;;;10.23;2.53;;;9.50;91.80;;;;;;5074916;28;20086;-83
2020/12/20 03:07:27;;;;;;;7.50;2.20;;;9.50;91.80;;;;;;5058075;28;20051;-83
2020/12/20 03:09:53;;;;;;;7.10;2.20;;;9.50;91.70;;;;;;5058154;28;20477;-83
2020/12/20 03:12:19;;;;;;;7.60;2.63;;;9.60;91.80;;;;;;5024721;28;20032;-83
2020/12/20 03:14:45;;;;;;;8.32;2.00;;;9.60;91.70;;;;;;5058213;28;20445;-83
2020/12/20 03:17:10;;;;;;;4.97;1.83;;;9.60;91.70;;;;;;5057940;28;20048;-83
2020/12/20 03:19:36;;;;;;;6.18;2.22;;;9.60;91.70;;;;;;5075838;28;20389;-83
2020/12/20 03:22:02;;;;;;;8.05;2.20;;;9.60;91.70;;;;;;5074630;28;20016;-83
2020/12/20 03:24:27;;;;;;;6.32;1.88;;;9.60;91.70;;;;;;5074718;28;20028;-83
2020/12/20 03:26:53;;;;;;;6.00;1.90;;;9.60;91.70;;;;;;5057640;28;20039;-83
2020/12/20 03:29:18;;;;;;;4.78;2.08;;;9.60;91.70;;;;;;5074430;28;20060;-83
2020/12/20 03:31:44;;;;;;;3.58;1.63;;;9.60;91.70;;;;;;5057177;28;20366;-83
2020/12/20 03:34:09;;;;;;;5.93;2.00;;;9.60;91.70;;;;;;5057396;28;20110;-83
2020/12/20 03:36:35;;;;;;;4.55;1.50;;;9.60;92.00;;;;;;5074996;28;20037;-83
2020/12/20 03:39:01;;;;;;;5.07;1.80;;;9.60;91.70;;;;;;5041787;28;20016;-83
2020/12/20 03:41:26;;;;;;;5.15;1.90;;;9.60;91.70;;;;;;5076226;28;20056;-83
2020/12/20 03:43:52;;;;;;;5.90;2.17;;;9.60;91.70;;;;;;5058185;28;20210;-83
2020/12/20 03:46:17;;;;;;;4.40;2.08;;;9.60;91.70;;;;;;5075924;28;20037;-83
2020/12/20 03:48:43;;;;;;;7.55;2.05;;;9.60;91.70;;;;;;5074234;28;20040;-80
2020/12/20 03:51:09;;;;;;;6.25;2.20;;;9.60;91.70;;;;;;5075217;28;20037;-76
2020/12/20 03:53:34;;;;;;;6.55;2.13;;;9.60;91.70;;;;;;5073794;28;20028;-76
2020/12/20 03:56:00;;;;;;;6.53;1.98;;;9.60;91.70;;;;;;5074035;28;20036;-76
2020/12/20 03:58:25;;;;;;;6.20;2.00;;;9.60;91.70;;;;;;5128399;27;20469;-76
2020/12/20 04:00:51;;;;;;;6.47;2.13;;;9.60;91.70;;;;;;5041514;28;20025;-76
2020/12/20 04:03:16;;;;;;;6.43;2.05;;;9.60;91.70;;;;;;5074325;28;20045;-76
2020/12/20 04:05:42;;;;;;;6.60;1.90;;;9.60;91.70;;;;;;5073723;28;20033;-76
2020/12/20 04:08:07;;;;;;;3.92;1.90;;;9.60;91.70;;;;;;5073166;28;20029;-76
2020/12/20 04:10:33;;;;;;;5.80;1.90;;;9.60;91.70;;;;;;5073519;28;20029;-76
2020/12/20 04:12:59;;;;;;;9.77;2.42;;;9.60;91.70;;;;;;5074561;28;20056;-76
2020/12/20 04:15:24;;;;;;;5.95;2.40;;;9.50;91.70;;;;;;5055991;28;20059;-75
2020/12/20 04:17:50;;;;;;;6.53;2.17;;;9.50;91.80;;;;;;5074405;28;20079;-76
2020/12/20 04:20:15;;;;;;;5.63;2.35;;;9.60;91.80;;;;;;5082787;28;20016;-76
2020/12/20 04:22:41;;;;;;;5.38;2.35;;;9.50;91.80;;;;;;5072672;28;20028;-76
2020/12/20 04:25:07;;;;;;;4.07;2.22;;;9.50;91.80;;;;;;5074124;28;20550;-76
2020/12/20 04:27:32;;;;;;;7.35;2.20;;;9.50;91.80;;;;;;5073448;28;20388;-79
2020/12/20 04:29:58;;;;;;;5.00;1.80;;;9.50;91.80;;;;;;5074652;28;20036;-79
2020/12/20 04:32:24;;;;;;;6.18;2.03;;;9.50;91.80;;;;;;5056553;28;20028;-79
2020/12/20 04:34:50;;;;;;;11.00;2.20;;;9.50;91.80;;;;;;5074550;28;20020;-79
2020/12/20 04:37:15;;;;;;;6.35;2.30;;;9.50;91.80;;;;;;5074423;28;20373;-79
2020/12/20 04:39:41;;;;;;;5.47;1.90;;;9.50;91.80;;;;;;5074642;28;20100;-80
2020/12/20 04:42:07;;;;;;;5.10;2.03;;;9.50;91.90;;;;;;5079383;28;20540;-75
2020/12/20 04:44:34;;;;;;;4.85;2.03;;;9.50;91.90;;;;;;5127542;27;20028;-75
2020/12/20 04:47:01;;;;;;;6.30;2.25;;;9.50;91.90;;;;;;5080176;28;20634;-75
2020/12/20 04:49:29;;;;;;;5.18;1.92;;;9.50;91.90;;;;;;5056088;28;20029;-75
2020/12/20 04:51:58;;;;;;;5.78;2.13;;;9.50;91.90;;;;;;5055678;28;20025;-75
2020/12/20 04:54:25;;;;;;;4.78;1.85;;;9.50;92.20;;;;;;5039691;28;20028;-83
2020/12/20 04:56:50;;;;;;;6.10;2.03;;;9.50;91.90;;;;;;5056177;28;20029;-83
2020/12/20 04:59:18;;;;;;;7.63;2.15;;;9.50;91.90;;;;;;5073927;28;20042;-76
2020/12/20 05:01:43;;;;;;;4.88;1.90;;;9.50;91.90;;;;;;5055792;28;20044;-76
2020/12/20 05:04:10;;;;;;;7.03;2.00;;;9.50;91.90;;;;;;5055700;28;20078;-75
2020/12/20 05:06:37;;;;;;;6.07;1.90;;;9.50;91.90;;;;;;5055858;28;20036;-75
2020/12/20 05:09:09;;;;;;;7.00;2.05;;;9.50;91.90;;;;;;5038321;28;20029;-76
2020/12/20 05:11:39;;;;;;;5.03;1.98;;;9.50;91.90;;;;;;5073179;28;20029;-83
2020/12/20 05:14:06;;;;;;;6.25;1.73;;;9.50;91.90;;;;;;5073824;28;20031;-83
2020/12/20 05:16:36;;;;;;;6.70;2.10;;;9.40;91.90;;;;;;5072346;28;20104;-83
2020/12/20 05:19:04;;;;;;;4.53;2.15;;;9.40;92.20;;;;;;5073480;28;20021;-83
2020/12/20 05:21:30;;;;;;;6.45;2.30;;;9.40;91.90;;;;;;5073504;28;20389;-83
2020/12/20 05:23:58;;;;;;;6.25;2.13;;;9.40;91.90;;;;;;5073329;28;20054;-83
2020/12/20 05:26:29;;;;;;;8.73;2.50;;;9.40;91.90;;;;;;5072506;28;20032;-82
2020/12/20 05:29:17;;;;;;;4.70;2.22;;;9.40;91.90;;;;;;5072055;28;20503;-83
2020/12/20 05:31:42;;;;;;;8.82;2.05;;;9.40;91.90;;;;;;5072010;28;20025;-83
2020/12/20 05:34:08;;;;;;;7.45;2.63;;;9.40;91.90;;;;;;5072612;28;21498;-83
2020/12/20 05:36:34;;;;;;;7.40;1.92;;;9.40;91.90;;;;;;5056013;28;20029;-83
2020/12/20 05:39:19;;;;;;;9.75;1.95;;;9.40;91.90;;;;;;5073564;28;20412;-83
2020/12/20 05:41:45;;;;;;;4.75;1.55;;;9.40;92.00;;;;;;5073365;28;20062;-75
2020/12/20 05:44:17;;;;;;;7.35;1.80;;;9.40;91.90;;;;;;5071509;28;20028;-75
2020/12/20 05:46:44;;;;;;;6.40;2.15;;;9.40;92.00;;;;;;5071853;28;20021;-75
2020/12/20 05:49:19;;;;;;;6.45;1.98;;;9.40;91.90;;;;;;5071444;28;20111;-74
2020/12/20 05:52:08;;;;;;;6.13;1.85;;;9.40;91.90;;;;;;5071661;28;20033;-75
2020/12/20 05:54:39;;;;;;;7.28;1.95;;;9.40;91.90;;;;;;5075620;28;20037;-75
2020/12/20 05:57:14;;;;;;;4.03;1.73;;;9.40;91.90;;;;;;5072079;28;20024;-75
2020/12/20 05:59:41;;;;;;;6.68;1.67;;;9.30;91.90;;;;;;5102870;28;20139;-76
2020/12/20 06:02:08;;;;;;;7.20;2.00;;;9.30;91.90;;;;;;5081119;28;20063;-75
2020/12/20 06:04:35;;;;;;;4.07;1.90;;;9.30;91.90;;;;;;5065487;28;20118;-76
2020/12/20 06:07:02;;;;;;;7.90;2.15;;;9.30;91.90;;;;;;5081422;28;20488;-76
2020/12/20 06:09:29;;;;;;;5.20;2.15;;;9.30;91.90;;;;;;5089222;28;20021;-76
2020/12/20 06:11:57;;;;;;;5.03;1.90;;;9.30;91.90;;;;;;5097421;28;20487;-83
2020/12/20 06:14:25;;;;;;;5.78;2.28;;;9.20;91.90;;;;;;5089926;28;20081;-83
2020/12/20 06:17:23;;;;;;;5.68;2.33;;;9.20;91.90;;;;;;5079316;28;20027;-83
2020/12/20 06:19:57;;;;;;;5.25;1.90;;;9.20;92.00;;;;;;5092586;28;20027;-83
2020/12/20 06:22:30;;;;;;;5.18;1.90;;;9.20;92.00;;;;;;5097421;28;20031;-83
2020/12/20 06:25:01;;;;;;;5.32;1.80;;;9.20;92.00;;;;;;5096979;28;20039;-83
2020/12/20 06:27:28;;;;;;;6.93;2.13;;;9.20;92.00;;;;;;5097348;28;20384;-83
2020/12/20 06:29:56;;;;;;;8.25;1.92;;;9.10;91.90;;;;;;5078636;28;20028;-83
2020/12/20 06:32:34;;;;;;;7.68;1.80;;;9.10;92.00;;;;;;5079458;28;20040;-83
2020/12/20 06:35:29;;;;;;;5.60;1.70;;;9.10;92.00;;;;;;5091635;28;20031;-83
2020/12/20 06:37:57;;;;;;;6.75;2.20;;;9.10;92.00;;;;;;5116904;28;20403;-83
2020/12/20 06:40:31;;;;;;;5.15;2.38;;;9.00;92.00;;;;;;5117106;28;20019;-83
2020/12/20 06:42:58;;;;;;;9.75;2.30;;;9.00;92.00;;;;;;5085050;28;20105;-83
2020/12/20 06:45:25;;;;;;;6.68;2.03;;;9.00;92.00;;;;;;5062396;28;20035;-83
2020/12/20 06:47:52;;;;;;;6.85;1.85;;;9.00;92.00;;;;;;5088701;28;20028;-83
2020/12/20 06:50:44;;;;;;;8.73;2.40;;;9.00;92.00;;;;;;5094639;28;20536;-83
2020/12/20 06:53:12;;;;;;;6.88;2.00;;;9.00;92.10;;;;;;5096771;28;20032;-83
2020/12/20 06:55:38;;;;;;;7.75;2.05;;;9.00;92.00;;;;;;5096396;28;20031;-83
2020/12/20 06:58:07;;;;;;;5.85;2.10;;;9.00;92.00;;;;;;5095450;28;20023;-82
2020/12/20 07:00:47;;;;;;;4.20;2.10;;;9.00;92.00;;;;;;5069370;28;20020;-83
2020/12/20 07:03:24;;;;;;;7.00;2.03;;;9.00;92.00;;;;;;5095667;28;20036;-83
2020/12/20 07:05:57;;;;;;;5.50;2.00;;;9.00;92.00;;;;;;5096201;28;20032;-76
2020/12/20 07:08:27;;;;;;;10.60;1.95;;;9.00;92.00;;;;;;5079147;28;20166;-75
2020/12/20 07:11:00;;;;;;;7.97;1.90;;;9.00;92.00;;;;;;5097798;28;20032;-75
2020/12/20 07:13:33;;;;;;;9.98;2.53;;;9.00;92.00;;;;;;5108046;28;20036;-75
2020/12/20 07:16:07;;;;;;;10.48;2.47;;;9.00;92.00;;;;;;5060584;28;20051;-75
2020/12/20 07:18:39;;;;;;;7.88;2.17;;;9.00;92.00;;;;;;5057358;28;20127;-75
2020/12/20 07:21:08;;;;;;;9.77;2.35;;;9.00;92.00;;;;;;5077481;28;20023;-75
2020/12/20 07:23:34;;;;;;;6.93;2.25;;;9.00;92.00;;;;;;5090046;28;20055;-75
2020/12/20 07:26:00;;;;;;;13.90;2.42;;;9.00;92.00;;;;;;5077120;28;20059;-75
2020/12/20 07:28:26;;;;;;;8.90;2.17;;;9.10;92.00;;;;;;5060803;28;20063;-76
2020/12/20 07:30:51;;;;;;;10.80;2.00;;;9.10;92.00;;;;;;5075586;28;20064;-79
2020/12/20 07:33:18;;;;;;;12.15;2.00;;;9.00;91.90;;;;;;5089333;28;20028;-79
2020/12/20 07:35:45;;;;;;;9.20;1.75;;;9.00;92.00;;;;;;5077542;28;20024;-79
2020/12/20 07:38:10;;;;;;;6.32;1.95;;;9.10;92.00;;;;;;5097314;28;20020;-79
2020/12/20 07:40:36;;;;;;;9.07;2.00;;;9.10;91.90;;;;;;5132016;27;20110;-79
2020/12/20 07:43:01;;;;;;;6.82;1.65;;;9.10;91.90;;;;;;5112663;28;20353;-76
2020/12/20 07:45:27;;;;;;;5.25;2.03;;;9.10;91.90;;;;;;5067884;28;20032;-76
2020/12/20 07:47:53;;;;;;;9.57;2.08;;;9.10;91.90;;;;;;5073595;28;20037;-76
2020/12/20 07:50:22;;;;;;;12.52;3.13;;;9.10;91.90;;;;;;5089682;28;20062;-76
2020/12/20 07:52:49;;;;;;;8.35;2.03;;;9.10;91.90;;;;;;5095145;28;20027;-75
2020/12/20 07:55:15;;;;;;;8.65;1.92;;;9.10;91.90;;;;;;5094569;28;20068;-75
2020/12/20 07:57:46;;;;;;;4.63;1.70;;;9.10;91.90;;;;;;5093589;28;20043;-75
2020/12/20 08:00:13;;;;;;;8.43;2.40;;;9.10;91.90;;;;;;5074687;28;20421;-76
2020/12/20 08:02:39;;;;;;;13.25;2.40;;;9.10;91.90;;;;;;5072185;28;20063;-75
2020/12/20 08:05:10;;;;;;;13.80;2.38;;;9.10;91.90;;;;;;5094476;28;20472;-76
2020/12/20 08:07:36;;;;;;;6.65;1.75;;;9.10;91.90;;;;;;5109870;28;20032;-75
2020/12/20 08:10:04;;;;;;;10.38;2.28;;;9.20;91.90;;;;;;5115329;28;20024;-75
2020/12/20 08:12:30;;;;;;;8.32;1.80;;;9.20;91.80;;;;;;5083244;28;20028;-76
2020/12/20 08:15:08;;;;;;;10.68;2.22;;;9.20;91.80;;;;;;5076278;28;20038;-75
2020/12/20 08:17:37;;;;;;;6.25;2.03;;;9.20;91.80;;;;;;5067448;28;20035;-75
2020/12/20 08:20:06;;;;;;;5.32;1.80;;;9.20;91.70;;;;;;5092389;28;20404;-75
2020/12/20 08:22:32;;;;;;;;;;;9.30;91.70;;;;;;5095359;28;20052;-75
2020/12/20 08:25:06;;;;;;;9.60;1.95;;;9.30;91.70;;;;;;5094909;28;19990;-79
2020/12/20 08:27:33;;;;;;;8.88;1.80;;;9.30;91.70;;;;;;5067174;28;20484;-79
2020/12/20 08:30:04;;;;;;;4.93;1.88;;;9.30;91.70;;;;;;5075844;28;20044;-79
2020/12/20 08:32:43;;;;;;;9.20;1.90;;;9.30;91.70;;;;;;5120251;27;20078;-79
2020/12/20 08:35:15;;;;;;;11.57;2.53;;;9.40;91.70;;;;;;5114787;28;20032;-79
2020/12/20 08:37:42;;;;;;;8.15;1.70;;;9.40;91.70;;;;;;5102238;28;20020;-78
2020/12/20 08:40:16;;;;;;;9.50;1.75;;;9.40;91.60;;;;;;5075944;28;20032;-78
2020/12/20 08:42:42;;;;;;;12.68;2.17;;;9.40;91.60;;;;;;5093066;28;20607;-79
2020/12/20 08:45:16;;;;;;;7.18;1.95;;;9.50;91.60;;;;;;5094189;28;20023;-79
2020/12/20 08:47:43;;;;;;;7.90;2.33;;;9.50;91.60;;;;;;5093796;28;20028;-79
2020/12/20 08:50:10;;;;;;;9.48;1.73;;;9.50;91.50;;;;;;5094159;28;20030;-79
2020/12/20 08:52:36;;;;;;;11.70;1.92;;;9.50;91.40;;;;;;5090044;28;20077;-79
2020/12/20 08:55:04;;;;;;;9.65;1.90;;;9.60;91.40;;;;;;5071698;28;20028;-79
2020/12/20 08:57:32;;;;;;;14.05;2.17;;;9.60;91.40;;;;;;5076964;28;20025;-78
2020/12/20 09:00:13;;;;;;;9.48;2.20;;;9.60;91.40;;;;;;5094324;28;20111;-78
2020/12/20 09:02:40;;;;;;;6.88;1.85;;;9.60;91.40;;;;;;5102236;28;20458;-78
2020/12/20 09:05:17;;;;;;;7.30;1.70;;;9.70;91.30;;;;;;5114709;28;20054;-79
2020/12/20 09:07:44;;;;;;;8.00;1.85;;;9.70;91.30;;;;;;5097563;28;20024;-79
2020/12/20 09:10:10;;;;;;;5.78;1.85;;;9.70;91.30;;;;;;5075949;28;20063;-79
2020/12/20 09:12:37;;;;;;;12.05;2.30;;;9.70;91.30;;;;;;5093912;28;20055;-79
2020/12/20 09:15:09;;;;;;;17.70;2.42;;;9.70;91.20;;;;;;5075954;28;20031;-79
2020/12/20 09:17:37;;;;;;;8.02;2.30;;;9.80;91.20;;;;;;5075498;28;20028;-79
2020/12/20 09:20:06;;;;;;;18.45;2.70;;;9.80;91.10;;;;;;5075791;28;20028;-79
2020/12/20 09:22:38;;;;;;;7.68;2.28;;;9.80;91.10;;;;;;5075815;28;20047;-79
2020/12/20 09:25:04;;;;;;;10.15;2.30;;;9.80;91.10;;;;;;5093942;28;20028;-79
2020/12/20 09:27:29;;;;;;;16.65;2.78;;;9.80;91.10;;;;;;5093902;28;20110;-79
2020/12/20 09:29:55;;;;;;;9.32;2.60;;;9.90;91.10;;;;;;5075542;28;20103;-79
2020/12/20 09:32:21;;;;;;;9.32;2.50;;;9.90;91.00;;;;;;5053479;28;20032;-80
2020/12/20 09:34:46;;;;;;;10.63;2.55;;;9.90;91.00;;;;;;5056299;28;20090;-75
2020/12/20 09:37:12;;;;;;;9.10;2.33;;;9.90;91.00;;;;;;5092643;28;20129;-75
2020/12/20 09:39:58;;;;;;;12.85;2.50;;;10.00;91.00;;;;;;5074882;28;20057;-77
2020/12/20 09:42:24;;;;;;;9.90;2.35;;;10.00;91.00;;;;;;5093951;28;20489;-80
2020/12/20 09:44:50;;;;;;;10.52;2.50;;;10.00;90.90;;;;;;5109339;28;20396;-81
2020/12/20 09:47:16;;;;;;;15.57;3.33;;;10.00;90.90;;;;;;5093644;28;20032;-81
2020/12/20 09:49:42;;;;;;;9.25;2.17;;;10.00;90.80;;;;;;5109308;28;20035;-81
2020/12/20 09:52:07;;;;;;;12.88;2.20;;;10.10;90.80;;;;;;5092359;28;20036;-80
2020/12/20 09:54:33;;;;;;;13.32;2.20;;;10.10;90.80;;;;;;5109057;28;20117;-80
2020/12/20 09:56:58;;;;;;;9.50;2.30;;;10.10;90.70;;;;;;5093493;28;20047;-80
2020/12/20 09:59:24;;;;;;;9.27;2.03;;;10.20;90.70;;;;;;5109213;28;20485;-80
2020/12/20 10:01:49;;;;;;;9.88;2.17;;;10.20;90.60;;;;;;5069737;28;20053;-81
2020/12/20 10:04:15;;;;;;;8.60;2.53;;;10.20;90.60;;;;;;5075118;28;20469;-81
2020/12/20 10:06:41;;;;;;;13.95;2.55;;;10.30;90.50;;;;;;5075447;28;20094;-81
2020/12/20 10:09:06;;;;;;;9.90;2.10;;;10.30;90.50;;;;;;5075516;28;20036;-80
2020/12/20 10:11:32;;;;;;;14.55;2.60;;;10.30;90.50;;;;;;5075206;28;20031;-80
2020/12/20 10:13:57;;;;;;;13.93;2.42;;;10.30;90.40;;;;;;5075402;28;20032;-81
2020/12/20 10:16:24;;;;;;;15.57;2.50;;;10.40;90.30;;;;;;5075208;28;20357;-81
2020/12/20 10:18:49;;;;;;;7.20;2.10;;;10.40;90.30;;;;;;5058387;28;20098;-80
2020/12/20 10:21:16;;;;;;;7.43;2.15;;;10.40;90.30;;;;;;5093654;28;20016;-81
2020/12/20 10:23:42;;;;;;;11.75;2.95;;;10.40;90.30;;;;;;5093144;28;20472;-81
2020/12/20 10:26:09;;;;;;;11.68;2.28;;;10.40;90.20;;;;;;5093129;28;20039;-81
2020/12/20 10:28:35;;;;;;;14.52;2.40;;;10.40;90.20;;;;;;5076056;28;20032;-80
2020/12/20 10:31:00;;;;;;;13.73;2.40;;;10.40;90.20;;;;;;5075366;28;20024;-80
2020/12/20 10:33:26;;;;;;;10.07;2.30;;;10.40;90.20;;;;;;5093162;28;20043;-80
2020/12/20 10:35:52;;;;;;;11.82;2.45;;;10.40;90.20;;;;;;5092950;28;20447;-80
2020/12/20 10:38:17;;;;;;;10.88;2.45;;;10.40;90.20;;;;;;5075154;28;20028;-80
2020/12/20 10:40:43;;;;;;;13.85;2.35;;;10.50;90.40;;;;;;5075032;28;20504;-80
2020/12/20 10:43:08;;;;;;;13.27;2.60;;;10.50;90.20;;;;;;5093545;28;20373;-81
2020/12/20 10:45:34;;;;;;;19.10;2.88;;;10.50;90.10;;;;;;5092847;28;20032;-80
2020/12/20 10:48:00;;;;;;;14.18;2.92;;;10.50;90.10;;;;;;5058060;28;20063;-81
2020/12/20 10:50:25;;;;;;;19.27;3.25;;;10.50;90.10;;;;;;5092818;28;20028;-80
2020/12/20 10:52:51;;;;;;;9.20;2.40;;;10.50;90.10;;;;;;5059664;28;20024;-80
2020/12/20 10:55:16;;;;;;;17.92;2.40;;;10.50;90.10;;;;;;5078504;28;20047;-80
2020/12/20 10:57:42;;;;;;;12.88;2.55;;;10.50;90.10;;;;;;5061879;28;20115;-81
2020/12/20 11:00:08;;;;;;;11.88;2.72;;;10.50;90.30;;;;;;5078439;28;20024;-79
2020/12/20 11:02:33;;;;;;;13.77;2.90;;;10.50;90.10;;;;;;5061723;28;20051;-81
2020/12/20 11:04:59;;;;;;;11.52;2.35;;;10.60;90.10;;;;;;5078823;28;20020;-81
2020/12/20 11:07:25;;;;;;;10.55;2.60;;;10.50;90.00;;;;;;5078336;28;20102;-80
2020/12/20 11:09:51;;;;;;;12.13;2.83;;;10.50;90.00;;;;;;5061657;28;20434;-81
2020/12/20 11:12:16;;;;;;;13.48;2.42;;;10.50;90.00;;;;;;5096967;28;20654;-81
2020/12/20 11:14:42;;;;;;;16.17;3.08;;;10.60;90.00;;;;;;5096349;28;20477;-81
2020/12/20 11:17:07;;;;;;;14.65;2.78;;;10.50;90.00;;;;;;5078210;28;20024;-81
2020/12/20 11:19:33;;;;;;;13.10;3.10;;;10.60;90.00;;;;;;5078178;28;20025;-81
2020/12/20 11:21:58;;;;;;;14.43;2.78;;;10.60;90.00;;;;;;5061372;28;20097;-81
2020/12/20 11:24:25;;;;;;;13.73;3.03;;;10.60;89.80;;;;;;5078285;28;20138;-81
2020/12/20 11:26:52;;;;;;;12.43;2.47;;;10.60;89.80;;;;;;5077970;28;20057;-81
2020/12/20 11:29:18;;;;;;;12.50;2.47;;;10.70;89.80;;;;;;5077869;28;20016;-81
2020/12/20 11:31:44;;;;;;;11.10;2.53;;;10.70;89.70;;;;;;5077858;28;20426;-81
2020/12/20 11:34:11;;;;;;;8.68;2.22;;;10.70;89.60;;;;;;5095940;28;20016;-80
2020/12/20 11:36:37;;;;;;;10.18;2.33;;;10.80;89.60;;;;;;5092729;28;20399;-78
2020/12/20 11:39:07;;;;;;;10.27;2.50;;;10.80;89.50;;;;;;5058836;28;20047;-78
2020/12/20 11:41:33;;;;;;;13.82;2.70;;;10.80;89.50;;;;;;5088255;28;20127;-77
2020/12/20 11:43:59;;;;;;;9.25;2.13;;;10.90;89.40;;;;;;5095647;28;20100;-77
2020/12/20 11:46:26;;;;;;;9.85;2.15;;;11.00;89.00;;;;;;5078551;28;20028;-76
2020/12/20 11:48:51;;;;;;;11.48;2.42;;;11.10;89.00;;;;;;5095688;28;20032;-77
2020/12/20 11:51:18;;;;;;;11.15;2.47;;;11.30;87.90;;;;;;5076644;28;20040;-77
2020/12/20 11:53:44;;;;;;;14.55;2.40;;;11.50;87.00;;;;;;5061185;28;20028;-77
2020/12/20 11:56:11;;;;;;;11.68;2.53;;;11.70;86.10;;;;;;5095577;28;20035;-77
2020/12/20 11:58:40;;;;;;;8.52;2.83;;;11.80;85.50;;;;;;5077438;28;20049;-76
2020/12/20 12:01:06;;;;;;;13.73;2.90;;;11.90;84.80;;;;;;5045073;28;20020;-76
2020/12/20 12:03:32;;;;;;;13.02;2.92;;;12.00;84.60;;;;;;5076550;28;20055;-76
2020/12/20 12:05:59;;;;;;;13.55;2.47;;;12.10;84.30;;;;;;5098533;28;20036;-76
2020/12/20 12:08:25;;;;;;;10.60;2.58;;;12.00;84.30;;;;;;5095337;28;20039;-77
2020/12/20 12:10:52;;;;;;;16.05;2.45;;;12.00;84.70;;;;;;5095211;28;20049;-77
2020/12/20 12:13:18;;;;;;;11.40;2.88;;;12.00;84.50;;;;;;5077554;28;20036;-77
2020/12/20 12:15:44;;;;;;;12.95;2.53;;;12.10;84.20;;;;;;5076970;28;20034;-77
2020/12/20 12:18:11;;;;;;;13.85;2.47;;;12.30;83.70;;;;;;5076972;28;20024;-77
2020/12/20 12:20:37;;;;;;;11.60;2.10;;;12.40;83.10;;;;;;5095158;28;20028;-77
2020/12/20 12:23:03;;;;;;;13.82;2.83;;;12.50;82.50;;;;;;5095127;28;20035;-77
2020/12/20 12:25:29;;;;;;;9.95;2.30;;;12.70;81.90;;;;;;5101540;28;20028;-76
2020/12/20 12:27:55;;;;;;;15.93;2.78;;;12.70;81.50;;;;;;5115489;28;20081;-76
2020/12/20 12:30:21;;;;;;;13.27;2.97;;;12.50;82.20;;;;;;5115365;28;20032;-76
2020/12/20 12:32:47;;;;;;;14.43;3.15;;;12.30;83.50;;;;;;5111148;28;20044;-77
2020/12/20 12:35:13;;;;;;;13.25;2.78;;;12.00;84.60;;;;;;5076629;28;20085;-77
2020/12/20 12:37:39;;;;;;;10.95;2.80;;;11.90;84.80;;;;;;5091547;28;20504;-77
2020/12/20 12:40:06;;;;;;;15.07;2.83;;;12.10;84.60;;;;;;5072515;28;20051;-77
2020/12/20 12:42:32;;;;;;;13.18;2.40;;;12.20;83.90;;;;;;5077488;28;20024;-77
2020/12/20 12:44:58;;;;;;;9.55;2.65;;;12.50;82.70;;;;;;5094404;28;20055;-76
2020/12/20 12:47:23;;;;;;;10.65;2.30;;;12.70;81.80;;;;;;5094361;28;20063;-76
2020/12/20 12:49:49;;;;;;;16.38;2.80;;;12.70;82.00;;;;;;5094644;28;20028;-76
2020/12/20 12:52:15;;;;;;;14.38;2.80;;;12.80;81.50;;;;;;5059337;28;20437;-75
2020/12/20 12:54:41;;;;;;;12.00;2.05;;;13.00;80.80;;;;;;5075953;28;20103;-76